createdAt,value
2019-02-07T00:04:23.830Z,28.37
2019-02-07T00:10:06.429Z,28.17
2019-02-07T00:12:52.115Z,29.23
2019-02-07T00:15:22.775Z,30.43
2019-02-07T00:18:12.840Z,29.67
2019-02-07T00:20:55.390Z,29.60
2019-02-07T00:23:45.595Z,31.67
2019-02-07T00:26:35.419Z,31.57
2019-02-07T00:29:25.546Z,29.83
2019-02-07T00:32:15.612Z,32.60
2019-02-07T00:35:27.959Z,31.47
2019-02-07T00:38:10.383Z,30.33
2019-02-07T00:40:52.809Z,30.63
2019-02-07T00:46:48.686Z,30.10
2019-02-07T00:49:38.441Z,30.97
2019-02-07T00:52:21.387Z,29.23
2019-02-07T00:55:12.958Z,29.10
2019-02-07T00:57:57.491Z,31.67
2019-02-07T01:00:47.588Z,29.20
2019-02-07T01:03:37.380Z,29.17
2019-02-07T01:06:28.083Z,30.40
2019-02-07T01:09:17.887Z,25.57
2019-02-07T01:12:07.702Z,29.50
2019-02-07T01:15:09.995Z,29.00
2019-02-07T01:17:52.046Z,31.20
2019-02-07T01:20:41.882Z,30.43
2019-02-07T01:23:24.180Z,30.67
2019-02-07T01:26:13.928Z,32.07
2019-02-07T01:28:57.568Z,31.80
2019-02-07T01:31:47.383Z,30.93
2019-02-07T01:34:31.527Z,31.43
2019-02-07T01:37:21.270Z,31.20
2019-02-07T01:40:03.747Z,32.53
2019-02-07T01:42:55.743Z,31.97
2019-02-07T01:45:37.571Z,29.30
2019-02-07T01:48:27.292Z,31.20
2019-02-07T01:51:10.221Z,32.33
2019-02-07T01:53:59.967Z,31.00
2019-02-07T01:56:42.105Z,30.17
2019-02-07T01:59:31.813Z,29.87
2019-02-07T02:02:15.891Z,28.87
2019-02-07T02:08:22.693Z,30.13
2019-02-07T02:11:12.447Z,32.80
2019-02-07T02:14:02.265Z,29.83
2019-02-07T02:16:52.037Z,29.50
2019-02-07T02:19:42.044Z,29.67
2019-02-07T02:22:31.768Z,29.40
2019-02-07T02:25:23.365Z,28.53
2019-02-07T02:28:05.523Z,29.30
2019-02-07T02:30:55.453Z,29.43
2019-02-07T02:33:45.261Z,29.47
2019-02-07T02:36:35.047Z,29.37
2019-02-07T02:39:24.832Z,27.80
2019-02-07T02:42:14.554Z,27.90
2019-02-07T02:44:56.903Z,28.93
2019-02-07T02:48:05.750Z,29.87
2019-02-07T02:50:55.543Z,29.83
2019-02-07T02:53:45.301Z,30.93
2019-02-07T02:59:29.913Z,29.50
2019-02-07T03:02:38.724Z,30.63
2019-02-07T03:05:47.317Z,28.60
2019-02-07T03:08:55.939Z,28.90
2019-02-07T03:12:04.468Z,29.00
2019-02-07T03:15:13.059Z,26.67
2019-02-07T03:18:21.704Z,27.37
2019-02-07T03:21:30.314Z,27.33
2019-02-07T03:24:38.851Z,26.47
2019-02-07T03:27:47.442Z,28.13
2019-02-07T03:30:49.699Z,25.47
2019-02-07T03:33:50.882Z,28.33
2019-02-07T03:36:52.006Z,27.23
2019-02-07T03:40:00.652Z,26.17
2019-02-07T03:43:09.241Z,24.40
2019-02-07T03:46:17.849Z,22.60
2019-02-07T03:49:26.439Z,26.47
2019-02-07T03:52:35.030Z,25.33
2019-02-07T03:55:36.502Z,20.53
2019-02-07T03:58:45.325Z,24.33
2019-02-07T04:01:54.039Z,24.07
2019-02-07T04:05:02.659Z,22.50
2019-02-07T04:08:11.441Z,24.73
2019-02-07T04:11:39.603Z,24.17
2019-02-07T04:14:31.114Z,23.80
2019-02-07T04:17:39.698Z,22.50
2019-02-07T04:20:32.880Z,24.40
2019-02-07T04:23:41.414Z,22.27
2019-02-07T04:26:48.336Z,25.87
2019-02-07T04:29:56.899Z,22.40
2019-02-07T04:32:58.455Z,24.63
2019-02-07T04:36:01.347Z,25.97
2019-02-07T04:39:03.047Z,23.53
2019-02-07T04:42:11.614Z,24.20
2019-02-07T04:45:04.618Z,21.93
2019-02-07T04:48:13.217Z,21.53
2019-02-07T04:51:18.450Z,21.37
2019-02-07T04:54:19.889Z,22.30
2019-02-07T04:57:47.571Z,22.50
2019-02-07T05:00:56.179Z,23.07
2019-02-07T05:04:05.038Z,22.63
2019-02-07T05:07:32.684Z,21.83
2019-02-07T05:10:41.230Z,20.40
2019-02-07T05:13:42.958Z,22.60
2019-02-07T05:16:51.614Z,23.77
2019-02-07T05:20:00.326Z,20.53
2019-02-07T05:23:08.920Z,23.63
2019-02-07T05:26:17.520Z,21.33
2019-02-07T05:29:19.134Z,22.93
2019-02-07T05:32:27.768Z,23.87
2019-02-07T05:35:36.365Z,26.20
2019-02-07T05:38:37.456Z,26.20
2019-02-07T05:41:46.071Z,26.33
2019-02-07T05:44:54.641Z,26.60
2019-02-07T05:48:03.231Z,25.50
2019-02-07T05:51:12.224Z,26.70
2019-02-07T05:54:20.935Z,28.03
2019-02-07T05:57:21.318Z,27.20
2019-02-07T06:03:53.263Z,28.17
2019-02-07T06:06:54.377Z,26.87
2019-02-07T06:10:02.919Z,27.43
2019-02-07T06:13:04.017Z,25.80
2019-02-07T06:16:05.384Z,26.47
2019-02-07T06:19:14.011Z,26.87
2019-02-07T06:22:22.557Z,26.20
2019-02-07T06:28:49.771Z,25.33
2019-02-07T06:31:58.373Z,25.97
2019-02-07T06:35:06.985Z,24.07
2019-02-07T06:38:15.953Z,24.83
2019-02-07T06:41:24.556Z,25.87
2019-02-07T06:44:33.167Z,27.27
2019-02-07T06:47:41.821Z,25.47
2019-02-07T06:50:50.445Z,26.63
2019-02-07T06:53:59.462Z,27.53
2019-02-07T06:57:08.156Z,27.03
2019-02-07T07:00:16.953Z,26.03
2019-02-07T07:03:11.942Z,26.53
2019-02-07T07:06:20.518Z,27.80
2019-02-07T07:09:18.543Z,27.50
2019-02-07T07:12:27.183Z,29.67
2019-02-07T07:15:54.856Z,28.53
2019-02-07T07:18:56.241Z,27.70
2019-02-07T07:22:04.834Z,28.10
2019-02-07T07:25:13.723Z,26.40
2019-02-07T07:28:22.329Z,26.93
2019-02-07T07:31:30.918Z,28.40
2019-02-07T07:34:21.892Z,26.27
2019-02-07T07:37:30.486Z,27.83
2019-02-07T07:40:39.148Z,26.43
2019-02-07T07:43:36.992Z,27.40
2019-02-07T07:46:45.803Z,25.73
2019-02-07T07:49:39.089Z,28.00
2019-02-07T07:53:08.366Z,25.23
2019-02-07T07:56:12.968Z,26.27
2019-02-07T07:59:21.498Z,25.93
2019-02-07T08:02:22.930Z,25.93
2019-02-07T08:05:32.386Z,25.30
2019-02-07T08:08:36.361Z,25.37
2019-02-07T08:11:35.949Z,25.27
2019-02-07T08:14:39.738Z,24.87
2019-02-07T08:17:48.370Z,25.17
2019-02-07T08:20:49.638Z,25.27
2019-02-07T08:23:58.254Z,24.40
2019-02-07T08:27:06.802Z,25.53
2019-02-07T08:30:09.566Z,24.03
2019-02-07T08:33:16.502Z,26.63
2019-02-07T08:36:19.410Z,24.43
2019-02-07T08:39:50.898Z,24.83
2019-02-07T08:42:52.786Z,24.00
2019-02-07T08:45:54.071Z,25.70
2019-02-07T08:52:24.940Z,23.80
2019-02-07T08:55:26.626Z,24.13
2019-02-07T08:58:35.419Z,25.27
2019-02-07T09:01:44.154Z,24.93
2019-02-07T09:04:52.780Z,26.17
2019-02-07T09:08:01.426Z,24.50
2019-02-07T09:11:10.092Z,25.10
2019-02-07T09:14:18.738Z,26.80
2019-02-07T09:17:46.466Z,25.93
2019-02-07T09:20:55.053Z,25.47
2019-02-07T09:23:56.772Z,26.20
2019-02-07T09:27:05.365Z,25.90
2019-02-07T09:33:09.385Z,27.63
2019-02-07T09:36:18.041Z,27.93
2019-02-07T09:39:20.831Z,26.77
2019-02-07T09:42:28.280Z,27.83
2019-02-07T09:45:39.188Z,25.63
2019-02-07T09:48:47.757Z,25.50
2019-02-07T09:51:56.271Z,29.03
2019-02-07T09:55:04.849Z,28.03
2019-02-07T09:58:07.229Z,26.30
2019-02-07T10:01:13.175Z,26.73
2019-02-07T10:04:40.920Z,26.23
2019-02-07T10:07:49.518Z,28.00
2019-02-07T10:10:58.108Z,27.77
2019-02-07T10:13:59.828Z,26.40
2019-02-07T10:20:26.067Z,27.77
2019-02-07T10:23:26.998Z,25.10
2019-02-07T10:26:30.377Z,25.50
2019-02-07T10:29:38.957Z,25.80
2019-02-07T10:32:47.497Z,25.60
2019-02-07T10:35:50.297Z,24.70
2019-02-07T10:38:53.351Z,25.40
2019-02-07T10:41:54.460Z,24.10
2019-02-07T10:45:03.039Z,24.30
2019-02-07T10:48:11.623Z,23.33
2019-02-07T10:51:09.531Z,24.47
2019-02-07T10:54:18.397Z,24.73
2019-02-07T10:57:27.056Z,24.10
2019-02-07T11:00:37.872Z,25.30
2019-02-07T11:03:47.671Z,24.10
2019-02-07T11:06:49.177Z,26.77
2019-02-07T11:09:57.794Z,25.20
2019-02-07T11:13:06.356Z,24.87
2019-02-07T11:16:08.041Z,23.00
2019-02-07T11:19:21.352Z,25.20
2019-02-07T11:22:19.803Z,24.17
2019-02-07T11:28:43.243Z,25.67
2019-02-07T11:31:52.367Z,24.60
2019-02-07T11:35:01.065Z,26.00
2019-02-07T11:38:01.894Z,24.50
2019-02-07T11:41:10.473Z,26.30
2019-02-07T11:44:19.115Z,25.53
2019-02-07T11:47:27.767Z,25.70
2019-02-07T11:50:45.287Z,24.67
2019-02-07T11:53:37.746Z,23.37
2019-02-07T11:56:47.473Z,23.97
2019-02-07T11:59:49.974Z,24.80
2019-02-07T12:02:58.555Z,22.80
2019-02-07T12:05:51.679Z,23.33
2019-02-07T12:09:19.296Z,23.53
2019-02-07T12:12:23.909Z,24.43
2019-02-07T12:15:32.450Z,23.97
2019-02-07T12:18:34.026Z,23.93
2019-02-07T12:21:42.552Z,25.20
2019-02-07T12:24:45.118Z,23.10
2019-02-07T12:27:53.684Z,22.33
2019-02-07T12:30:54.994Z,23.93
2019-02-07T12:34:03.590Z,22.47
2019-02-07T12:37:01.185Z,21.43
2019-02-07T12:40:09.738Z,18.53
2019-02-07T12:43:14.754Z,18.20
2019-02-07T12:49:28.730Z,18.43
2019-02-07T12:52:28.588Z,16.43
2019-02-07T12:55:37.480Z,15.63
2019-02-07T12:58:46.103Z,14.27
2019-02-07T13:01:54.712Z,13.80
2019-02-07T13:05:03.284Z,14.13
2019-02-07T13:08:05.110Z,13.37
2019-02-07T13:11:13.694Z,14.87
2019-02-07T13:14:11.037Z,15.23
2019-02-07T13:17:19.684Z,14.47
2019-02-07T13:20:30.118Z,13.77
2019-02-07T13:23:38.746Z,12.73
2019-02-07T13:30:04.862Z,10.93
2019-02-07T13:33:13.463Z,12.37
2019-02-07T13:36:09.271Z,11.73
2019-02-07T13:39:17.818Z,10.87
2019-02-07T13:42:18.575Z,9.57
2019-02-07T13:45:29.484Z,11.17
2019-02-07T13:48:30.411Z,9.80
2019-02-07T13:51:38.925Z,10.63
2019-02-07T13:54:41.400Z,9.30
2019-02-07T13:57:45.375Z,9.63
2019-02-07T14:00:41.398Z,10.20
2019-02-07T14:03:50.132Z,10.03
2019-02-07T14:06:58.732Z,9.80
2019-02-07T14:10:00.668Z,9.30
2019-02-07T14:13:09.287Z,9.73
2019-02-07T14:16:17.939Z,8.30
2019-02-07T14:19:26.556Z,9.37
2019-02-07T14:22:35.175Z,8.53
2019-02-07T14:25:43.777Z,10.23
2019-02-07T14:28:52.351Z,10.23
2019-02-07T14:32:00.925Z,10.27
2019-02-07T14:35:09.497Z,10.40
2019-02-07T14:38:37.497Z,8.20
2019-02-07T14:41:46.097Z,9.90
2019-02-07T14:44:54.694Z,8.17
2019-02-07T14:48:00.326Z,9.50
2019-02-07T14:50:42.589Z,9.43
2019-02-07T14:53:32.315Z,9.20
2019-02-07T14:56:16.117Z,9.40
2019-02-07T14:59:05.953Z,8.97
2019-02-07T15:01:48.064Z,9.80
2019-02-07T15:04:37.793Z,8.37
2019-02-07T15:07:19.973Z,9.23
2019-02-07T15:10:30.505Z,9.47
2019-02-07T15:13:13.085Z,9.57
2019-02-07T15:16:02.837Z,9.53
2019-02-07T15:18:46.138Z,9.20
2019-02-07T15:21:36.073Z,8.23
2019-02-07T15:24:20.327Z,7.93
2019-02-07T15:27:10.146Z,7.67
2019-02-07T15:29:59.927Z,8.03
2019-02-07T15:32:49.767Z,6.30
2019-02-07T15:35:42.669Z,7.93
2019-02-07T15:38:32.657Z,9.47
2019-02-07T15:41:22.601Z,8.03
2019-02-07T15:47:08.841Z,9.20
2019-02-07T15:49:58.252Z,7.90
2019-02-07T15:52:48.231Z,8.43
2019-02-07T15:55:38.043Z,9.57
2019-02-07T15:58:46.678Z,9.00
2019-02-07T16:01:40.487Z,9.73
2019-02-07T16:04:25.804Z,9.93
2019-02-07T16:07:15.572Z,8.87
2019-02-07T16:13:23.194Z,8.80
2019-02-07T16:16:05.649Z,10.23
2019-02-07T16:18:55.452Z,9.63
2019-02-07T16:21:45.229Z,10.73
2019-02-07T16:24:35.036Z,18.27
2019-02-07T16:27:24.831Z,11.07
2019-02-07T16:33:29.698Z,10.07
2019-02-07T16:36:19.690Z,10.43
2019-02-07T16:39:04.928Z,10.73
2019-02-07T16:44:58.358Z,10.53
2019-02-07T16:47:41.023Z,10.67
2019-02-07T16:50:30.912Z,10.97
2019-02-07T16:53:13.454Z,10.83
2019-02-07T16:59:06.891Z,10.07
2019-02-07T17:01:48.944Z,10.47
2019-02-07T17:04:38.649Z,10.17
2019-02-07T17:07:21.232Z,9.93
2019-02-07T17:10:12.602Z,10.03
2019-02-07T17:13:02.384Z,10.00
2019-02-07T17:15:52.178Z,10.30
2019-02-07T17:18:41.996Z,10.00
2019-02-07T17:21:31.794Z,10.40
2019-02-07T17:24:40.838Z,9.97
2019-02-07T17:27:43.532Z,10.10
2019-02-07T17:30:26.434Z,11.77
2019-02-07T17:33:16.203Z,10.80
2019-02-07T17:36:02.895Z,10.13
2019-02-07T17:38:52.664Z,11.00
2019-02-07T17:41:34.786Z,10.97
2019-02-07T17:44:24.566Z,11.23
2019-02-07T17:47:14.314Z,11.23
2019-02-07T17:50:04.760Z,12.67
2019-02-07T17:52:54.524Z,12.23
2019-02-07T17:55:37.014Z,15.63
2019-02-07T17:58:27.533Z,14.80
2019-02-07T18:01:11.692Z,14.90
2019-02-07T18:04:01.446Z,12.73
2019-02-07T18:06:44.013Z,13.13
2019-02-07T18:09:33.754Z,13.07
2019-02-07T18:12:15.680Z,11.47
2019-02-07T18:18:00.995Z,11.83
2019-02-07T18:20:50.803Z,11.33
2019-02-07T18:23:32.974Z,10.57
2019-02-07T18:26:22.770Z,11.57
2019-02-07T18:29:12.583Z,10.77
2019-02-07T18:32:02.442Z,12.03
2019-02-07T18:34:52.285Z,12.07
2019-02-07T18:37:36.821Z,11.67
2019-02-07T18:40:27.249Z,13.53
2019-02-07T18:43:17.173Z,14.73
2019-02-07T18:46:06.963Z,13.27
2019-02-07T18:51:59.889Z,14.80
2019-02-07T18:54:42.256Z,15.47
2019-02-07T18:57:32.000Z,15.77
2019-02-07T19:00:23.927Z,16.13
2019-02-07T19:03:13.721Z,14.83
2019-02-07T19:06:03.634Z,15.80
2019-02-07T19:08:53.566Z,16.10
2019-02-07T19:11:43.305Z,14.63
2019-02-07T19:14:33.316Z,13.60
2019-02-07T19:17:23.265Z,13.70
2019-02-07T19:20:08.900Z,13.63
2019-02-07T19:22:58.629Z,13.90
2019-02-07T19:25:41.289Z,13.90
2019-02-07T19:28:31.038Z,13.47
2019-02-07T19:31:13.447Z,14.07
2019-02-07T19:34:03.568Z,14.17
2019-02-07T19:36:46.477Z,14.50
2019-02-07T19:39:36.205Z,13.50
2019-02-07T19:42:18.609Z,13.83
2019-02-07T19:45:09.685Z,12.37
2019-02-07T19:47:53.098Z,12.83
2019-02-07T19:50:43.237Z,12.40
2019-02-07T19:53:25.652Z,13.00
2019-02-07T19:56:15.397Z,12.07
2019-02-07T19:59:24.175Z,12.87
2019-02-07T20:02:06.333Z,11.33
2019-02-07T20:04:56.161Z,11.13
2019-02-07T20:07:45.958Z,9.73
2019-02-07T20:10:28.489Z,10.00
2019-02-07T20:13:18.348Z,9.43
2019-02-07T20:16:08.174Z,9.43
2019-02-07T20:18:57.992Z,10.40
2019-02-07T20:21:47.806Z,10.93
2019-02-07T20:24:45.598Z,11.07
2019-02-07T20:27:22.642Z,11.43
2019-02-07T20:30:16.535Z,10.20
2019-02-07T20:33:08.383Z,11.73
2019-02-07T20:36:11.259Z,10.93
2019-02-07T20:38:53.738Z,11.80
2019-02-07T20:41:43.521Z,12.77
2019-02-07T20:44:27.268Z,12.07
2019-02-07T20:47:16.983Z,12.63
2019-02-07T20:49:59.500Z,11.80
2019-02-07T20:52:49.824Z,11.13
2019-02-07T20:55:31.975Z,11.00
2019-02-07T20:58:21.756Z,10.93
2019-02-07T21:01:04.507Z,10.87
2019-02-07T21:03:54.286Z,11.43
2019-02-07T21:06:44.026Z,12.30
2019-02-07T21:09:26.564Z,11.30
2019-02-07T21:12:16.655Z,9.13
2019-02-07T21:15:08.315Z,12.43
2019-02-07T21:17:58.094Z,11.30
2019-02-07T21:20:47.934Z,12.27
2019-02-07T21:23:37.701Z,12.17
2019-02-07T21:26:27.809Z,12.67
2019-02-07T21:29:12.050Z,15.43
2019-02-07T21:32:01.994Z,12.67
2019-02-07T21:34:44.119Z,11.83
2019-02-07T21:37:33.876Z,13.47
2019-02-07T21:40:16.726Z,12.93
2019-02-07T21:42:59.486Z,13.30
2019-02-07T21:45:42.823Z,13.93
2019-02-07T21:48:24.840Z,12.77
2019-02-07T21:51:14.652Z,14.07
2019-02-07T21:54:16.562Z,14.13
2019-02-07T21:56:59.085Z,14.97
2019-02-07T21:59:48.926Z,14.87
2019-02-07T22:02:38.658Z,15.57
2019-02-07T22:05:23.236Z,16.30
2019-02-07T22:08:13.225Z,16.17
2019-02-07T22:11:03.076Z,16.63
2019-02-07T22:13:53.031Z,16.77
2019-02-07T22:16:42.771Z,18.10
2019-02-07T22:19:26.730Z,16.67
2019-02-07T22:22:11.449Z,16.53
2019-02-07T22:25:01.557Z,17.73
2019-02-07T22:31:09.923Z,17.43
2019-02-07T22:33:52.374Z,17.97
2019-02-07T22:36:42.091Z,18.47
2019-02-07T22:39:24.367Z,17.03
2019-02-07T22:42:26.462Z,16.67
2019-02-07T22:45:12.325Z,16.47
2019-02-07T22:48:02.361Z,16.13
2019-02-07T22:50:52.059Z,16.10
2019-02-07T22:53:34.107Z,16.00
2019-02-07T22:56:23.896Z,16.83
2019-02-07T22:59:07.703Z,16.87
2019-02-07T23:01:57.765Z,16.57
2019-02-07T23:04:47.618Z,16.33
2019-02-07T23:07:31.356Z,14.83
2019-02-07T23:10:21.083Z,16.17
2019-02-07T23:13:03.493Z,13.97
2019-02-07T23:15:53.213Z,14.57
2019-02-07T23:18:36.033Z,14.23
2019-02-07T23:21:26.243Z,14.83
2019-02-07T23:24:16.009Z,15.10
2019-02-07T23:27:06.125Z,14.40
2019-02-07T23:29:55.960Z,14.83
2019-02-07T23:32:46.517Z,15.43
2019-02-07T23:35:36.615Z,14.63
2019-02-07T23:38:26.747Z,14.13
2019-02-07T23:41:16.775Z,14.43
2019-02-07T23:44:07.288Z,14.53
2019-02-07T23:47:16.151Z,14.63
2019-02-07T23:53:21.506Z,13.80
2019-02-07T23:56:11.377Z,14.13
2019-02-07T23:59:01.157Z,15.00
